createdAt,value
2019-01-06T12:44:30.737Z,2.70
2019-01-06T12:49:53.744Z,2.10
2019-01-06T12:55:09.841Z,2.53
2019-01-06T13:00:37.281Z,3.07
2019-01-06T13:06:11.151Z,13.17
2019-01-06T13:11:31.561Z,4.47
2019-01-06T17:54:57.813Z,11.37
2019-01-06T18:00:12.146Z,14.70
2019-01-06T18:05:38.541Z,13.83
2019-01-06T18:10:59.756Z,12.17
2019-01-06T18:16:33.651Z,11.57
2019-01-06T18:22:01.693Z,11.70
2019-01-06T18:27:22.761Z,12.37
2019-01-06T18:32:50.517Z,10.97
2019-01-06T18:38:07.513Z,9.77
2019-01-06T18:43:29.777Z,12.13
2019-01-06T18:48:43.053Z,10.33
2019-01-06T18:54:16.640Z,8.50
2019-01-06T18:59:44.025Z,8.30
2019-01-06T19:05:13.858Z,8.40
2019-01-06T19:10:34.450Z,7.77
2019-01-06T19:15:54.815Z,9.17
2019-01-06T19:21:12.437Z,9.67
2019-01-06T19:26:46.977Z,10.10
2019-01-06T19:32:18.047Z,10.70
2019-01-06T19:37:45.445Z,10.30
2019-01-06T19:42:58.054Z,11.30
2019-01-06T19:48:13.293Z,10.57
2019-01-06T19:53:32.048Z,10.60
2019-01-06T19:59:11.880Z,11.03
2019-01-06T20:04:48.639Z,11.47
2019-01-06T20:10:22.145Z,11.37
2019-01-06T20:15:42.213Z,11.30
2019-01-06T20:21:02.570Z,11.47
2019-01-06T20:26:14.241Z,11.93
2019-01-06T20:31:37.015Z,12.10
2019-01-06T20:36:54.227Z,12.40
2019-01-06T20:42:16.322Z,10.90
2019-01-06T20:47:43.446Z,11.40
2019-01-06T20:53:10.721Z,11.27
2019-01-06T20:58:32.537Z,11.57
2019-01-06T21:03:59.123Z,12.07
2019-01-06T21:09:20.122Z,12.10
2019-01-06T21:14:38.421Z,11.30
2019-01-06T21:20:06.429Z,10.83
2019-01-06T21:25:26.932Z,11.63
